»·PEaware :: N5166G KGUP-KTCC

N5166G :: KGUP-KTCC

FLIGHT INFORMATION

Flight Status: Arrived
Operator: Privately registered:
United States
More flights under this callsign
Pilot: John K. J. (32792)
Aircraft: DASSAULT AVIATION FALCON 20/100
(FA20)
More flights by this aircraft type
Origin: KGUP Gallup Mun
United States
Destination: KTCC Tucumcari Mun
United States
More flights between these airports :: More routes between these airports
Route: GUP SAF ACH
File this flight plan on PilotEdge
Remarks:
Altitude:
(Current/Filed)
17,500ft
Speed:
(Current/Filed)
320kts
Departed: 02-Jun-21 08:13 PM
Arrived: 02-Jun-21 09:03 PM
Distance/Time
Traveled:
254nm/0:50
Distance/Time
To Go:
Arrived

Flight Plot

Page will automatically refresh every two minutes.

Flight plan parsing failed; only flown route is shown


Map Options




Map Legend


Flown Route
Filed Route
Departure Airport
Arrival Airport
Navaid (VOR, NDB)
Fix

Horizontal Profiles

Position Reports

Time Latitude Longitude Heading Altitude Ground
Speed
02-Jun-21 20:06 35.514349 -108.781743 73 6477ft 0kts
02-Jun-21 20:07 35.514350 -108.781742 73 6477ft 0kts
02-Jun-21 20:08 35.514475 -108.779180 75 6477ft 12kts
02-Jun-21 20:09 35.514482 -108.777863 163 6477ft 4kts
02-Jun-21 20:10 35.514170 -108.777782 168 6477ft 10kts
02-Jun-21 20:12 35.513571 -108.778719 251 6477ft 0kts
02-Jun-21 20:13 35.509375 -108.796626 253 6605ft 178kts
02-Jun-21 20:14 35.485372 -108.851695 238 8141ft 182kts
02-Jun-21 20:15 35.448089 -108.855017 106 9670ft 181kts
02-Jun-21 20:16 35.461932 -108.786739 73 11279ft 239kts
02-Jun-21 20:17 35.484839 -108.704390 72 12823ft 288kts
02-Jun-21 20:18 35.495162 -108.589758 92 14697ft 371kts
02-Jun-21 20:19 35.494088 -108.458574 91 16504ft 397kts
02-Jun-21 20:20 35.495607 -108.320150 89 17500ft 412kts
02-Jun-21 20:21 35.498727 -108.178942 88 17500ft 417kts
02-Jun-21 20:22 35.502365 -108.036989 88 17500ft 418kts
02-Jun-21 20:23 35.506089 -107.894373 88 17500ft 418kts
02-Jun-21 20:24 35.509718 -107.752224 88 17499ft 418kts
02-Jun-21 20:25 35.513209 -107.610121 88 17500ft 418kts
02-Jun-21 20:26 35.516563 -107.467475 89 17500ft 418kts
02-Jun-21 20:27 35.519743 -107.325318 89 17500ft 418kts
02-Jun-21 20:28 35.522751 -107.183190 89 17499ft 418kts
02-Jun-21 20:29 35.525606 -107.040431 89 17500ft 418kts
02-Jun-21 20:30 35.528286 -106.898234 89 17500ft 418kts
02-Jun-21 20:31 35.530799 -106.756013 89 17500ft 418kts
02-Jun-21 20:31 35.532769 -106.637063 89 17500ft 418kts
02-Jun-21 20:33 35.535322 -106.471174 89 17500ft 418kts
02-Jun-21 20:34 35.537326 -106.328951 90 17500ft 418kts
02-Jun-21 20:35 35.539160 -106.186251 90 17500ft 418kts
02-Jun-21 20:36 35.530135 -106.045432 109 17507ft 417kts
02-Jun-21 20:36 35.491556 -105.937720 118 17500ft 414kts
02-Jun-21 20:37 35.438346 -105.812754 119 17499ft 412kts
02-Jun-21 20:38 35.385389 -105.688612 119 17500ft 412kts
02-Jun-21 20:40 35.324214 -105.543553 119 17499ft 412kts
02-Jun-21 20:41 35.271777 -105.418828 119 17500ft 412kts
02-Jun-21 20:41 35.228181 -105.315279 119 17500ft 412kts
02-Jun-21 20:42 35.175774 -105.191139 119 17500ft 412kts
02-Jun-21 20:43 35.124018 -105.066685 112 17498ft 412kts
02-Jun-21 20:44 35.105271 -104.928491 94 17500ft 415kts
02-Jun-21 20:45 35.100249 -104.787616 93 17464ft 418kts
02-Jun-21 20:46 35.095853 -104.650356 93 15988ft 394kts
02-Jun-21 20:47 35.091085 -104.521123 94 14480ft 361kts
02-Jun-21 20:48 35.086362 -104.404712 94 12955ft 330kts
02-Jun-21 20:49 35.082005 -104.302607 94 11537ft 285kts
02-Jun-21 20:50 35.077852 -104.209255 94 10006ft 261kts
02-Jun-21 20:51 35.074120 -104.126131 93 8477ft 220kts
02-Jun-21 20:52 35.070835 -104.054465 93 7125ft 221kts
02-Jun-21 20:53 35.067487 -103.981480 93 7011ft 201kts
02-Jun-21 20:54 35.064686 -103.921047 93 6987ft 157kts
02-Jun-21 20:55 35.062408 -103.872590 93 7007ft 160kts
02-Jun-21 20:56 35.059829 -103.817963 93 7000ft 165kts
02-Jun-21 20:57 35.057718 -103.761978 80 6991ft 166kts
02-Jun-21 20:58 35.087497 -103.717510 45 5868ft 184kts
02-Jun-21 20:59 35.123843 -103.673331 44 4996ft 163kts
02-Jun-21 21:00 35.153990 -103.636608 44 4499ft 141kts
02-Jun-21 21:01 35.180386 -103.604437 44 4070ft 105kts
02-Jun-21 21:02 35.184312 -103.602351 270 4070ft 3kts
02-Jun-21 21:03 35.184317 -103.602744 271 4070ft 15kts
02-Jun-21 21:04 35.182782 -103.609650 203 4070ft 17kts
02-Jun-21 21:05 35.181065 -103.609574 140 4070ft 0kts
02-Jun-21 21:06 35.181065 -103.609574 140 4070ft 0kts
02-Jun-21 21:07 35.181065 -103.609574 140 4070ft 0kts
02-Jun-21 21:08 35.181065 -103.609574 140 4070ft 0kts
02-Jun-21 21:09 35.181065 -103.609574 140 4070ft 0kts
02-Jun-21 21:10 35.181065 -103.609574 140 4070ft 0kts
02-Jun-21 21:11 35.181065 -103.609574 140 4070ft 0kts
02-Jun-21 21:12 35.181065 -103.609574 140 4070ft 0kts

Navigation Log

Ident Type
Flight plan parsing failed, navigation log unavailable